createdAt,value
2017-07-26T00:01:41.733Z,37.05
2017-07-26T00:04:09.269Z,38.85
2017-07-26T00:06:37.728Z,39.15
2017-07-26T00:09:05.309Z,39.47
2017-07-26T00:11:33.613Z,39.03
2017-07-26T00:14:01.513Z,38.70
2017-07-26T00:16:29.057Z,38.58
2017-07-26T00:18:56.597Z,39.08
2017-07-26T00:21:24.317Z,38.47
2017-07-26T00:23:52.044Z,39.35
2017-07-26T00:26:19.572Z,39.13
2017-07-26T00:28:48.196Z,39.50
2017-07-26T00:31:15.738Z,40.63
2017-07-26T00:33:43.273Z,41.45
2017-07-26T00:36:10.848Z,39.58
2017-07-26T00:38:38.401Z,40.67
2017-07-26T00:41:06.169Z,39.97
2017-07-26T00:43:33.713Z,39.67
2017-07-26T00:46:02.057Z,41.08
2017-07-26T00:48:29.633Z,41.67
2017-07-26T00:50:57.465Z,41.45
2017-07-26T00:53:25.327Z,42.20
2017-07-26T00:55:52.870Z,40.00
2017-07-26T00:58:20.406Z,41.92
2017-07-26T01:00:48.421Z,40.03
2017-07-26T01:03:15.973Z,40.90
2017-07-26T01:05:43.525Z,39.85
2017-07-26T01:08:11.109Z,38.88
2017-07-26T01:10:38.680Z,38.47
2017-07-26T01:13:06.218Z,41.78
2017-07-26T01:15:34.314Z,40.45
2017-07-26T01:18:01.853Z,39.28
2017-07-26T01:20:29.388Z,38.75
2017-07-26T01:22:57.009Z,39.10
2017-07-26T01:25:24.589Z,39.17
2017-07-26T01:27:53.229Z,40.28
2017-07-26T01:30:20.765Z,39.28
2017-07-26T01:32:48.305Z,39.20
2017-07-26T01:35:16.845Z,41.15
2017-07-26T01:37:44.381Z,40.28
2017-07-26T01:40:12.269Z,39.97
2017-07-26T01:42:39.813Z,39.95
2017-07-26T01:45:07.354Z,38.95
2017-07-26T01:47:34.931Z,38.38
2017-07-26T01:50:03.016Z,39.35
2017-07-26T01:52:30.548Z,37.72
2017-07-26T01:54:58.091Z,37.38
2017-07-26T01:57:25.904Z,35.42
2017-07-26T01:59:53.449Z,37.00
2017-07-26T02:02:21.024Z,36.10
2017-07-26T02:04:48.888Z,38.25
2017-07-26T02:07:16.429Z,36.63
2017-07-26T02:09:44.022Z,34.83
2017-07-26T02:12:11.563Z,36.97
2017-07-26T02:14:39.532Z,36.10
2017-07-26T02:17:07.060Z,35.92
2017-07-26T02:19:34.608Z,35.78
2017-07-26T02:22:03.137Z,35.50
2017-07-26T02:24:30.675Z,36.65
2017-07-26T02:26:58.257Z,36.45
2017-07-26T02:29:25.783Z,36.10
2017-07-26T02:31:53.356Z,36.35
2017-07-26T02:34:20.897Z,33.72
2017-07-26T02:36:48.864Z,35.85
2017-07-26T02:39:16.401Z,36.03
2017-07-26T02:41:43.940Z,35.35
2017-07-26T02:44:11.665Z,35.78
2017-07-26T02:46:39.241Z,34.22
2017-07-26T02:49:06.777Z,34.72
2017-07-26T02:51:34.689Z,36.03
2017-07-26T02:54:02.228Z,34.88
2017-07-26T02:56:29.768Z,36.45
2017-07-26T02:58:59.816Z,36.67
2017-07-26T03:01:27.354Z,36.00
2017-07-26T03:03:55.313Z,35.85
2017-07-26T03:06:22.856Z,35.13
2017-07-26T03:08:51.284Z,38.30
2017-07-26T03:11:18.816Z,36.78
2017-07-26T03:13:46.420Z,38.67
2017-07-26T03:16:13.950Z,36.35
2017-07-26T03:18:41.490Z,38.75
2017-07-26T03:21:09.596Z,37.10
2017-07-26T03:23:37.133Z,35.25
2017-07-26T03:26:04.668Z,37.42
2017-07-26T03:28:33.073Z,34.63
2017-07-26T03:31:00.650Z,36.47
2017-07-26T03:33:28.229Z,35.20
2017-07-26T03:35:55.770Z,35.00
2017-07-26T03:38:23.844Z,35.15
2017-07-26T03:40:51.387Z,37.28
2017-07-26T03:43:19.016Z,34.10
2017-07-26T03:45:48.581Z,35.38
2017-07-26T03:48:16.117Z,33.88
2017-07-26T03:50:43.696Z,34.38
2017-07-26T03:53:11.269Z,34.08
2017-07-26T03:55:38.800Z,33.28
2017-07-26T03:58:07.912Z,32.67
2017-07-26T04:00:35.585Z,34.45
2017-07-26T04:03:03.116Z,32.25
2017-07-26T04:05:33.573Z,34.70
2017-07-26T04:08:01.108Z,34.65
2017-07-26T04:10:28.645Z,31.85
2017-07-26T04:12:56.222Z,33.50
2017-07-26T04:15:26.517Z,34.05
2017-07-26T04:17:54.817Z,34.05
2017-07-26T04:20:22.353Z,33.65
2017-07-26T04:22:50.694Z,31.35
2017-07-26T04:25:18.763Z,30.73
2017-07-26T04:27:46.297Z,30.05
2017-07-26T04:30:13.837Z,27.87
2017-07-26T04:32:41.649Z,27.85
2017-07-26T04:35:09.181Z,24.35
2017-07-26T04:37:36.770Z,22.45
2017-07-26T04:40:04.312Z,23.20
2017-07-26T04:42:31.893Z,30.02
2017-07-26T04:44:59.424Z,32.83
2017-07-26T04:47:27.010Z,34.53
2017-07-26T04:49:54.813Z,40.12
2017-07-26T04:52:23.356Z,41.53
2017-07-26T04:54:50.902Z,43.03
2017-07-26T04:57:18.504Z,43.75
2017-07-26T04:59:46.857Z,40.70
2017-07-26T05:02:14.401Z,41.45
2017-07-26T05:04:43.395Z,44.17
2017-07-26T05:07:10.930Z,38.72
2017-07-26T05:09:38.585Z,38.97
2017-07-26T05:12:06.130Z,41.25
2017-07-26T05:14:34.480Z,41.72
2017-07-26T05:17:02.015Z,36.92
2017-07-26T05:19:29.757Z,38.15
2017-07-26T05:21:57.290Z,36.90
2017-07-26T05:24:25.610Z,37.63
2017-07-26T05:26:53.262Z,37.90
2017-07-26T05:29:20.808Z,38.22
2017-07-26T05:31:48.388Z,38.85
2017-07-26T05:34:15.969Z,36.42
2017-07-26T05:36:43.510Z,37.00
2017-07-26T05:39:11.093Z,37.22
2017-07-26T05:41:38.638Z,36.40
2017-07-26T05:44:06.304Z,35.72
2017-07-26T05:46:33.893Z,36.30
2017-07-26T05:49:01.433Z,37.67
2017-07-26T05:51:31.335Z,34.40
2017-07-26T05:53:58.956Z,35.60
2017-07-26T05:56:27.269Z,35.10
2017-07-26T05:58:54.844Z,33.85
2017-07-26T06:01:22.389Z,33.00
2017-07-26T06:03:50.106Z,29.50
2017-07-26T06:06:17.640Z,29.50
2017-07-26T06:08:45.222Z,27.15
2017-07-26T06:11:12.762Z,28.40
2017-07-26T06:13:40.345Z,26.55
2017-07-26T06:16:07.880Z,23.10
2017-07-26T06:18:35.849Z,20.75
2017-07-26T06:21:03.388Z,20.90
2017-07-26T06:23:30.934Z,20.23
2017-07-26T06:25:58.864Z,18.55
2017-07-26T06:28:26.417Z,18.00
2017-07-26T06:30:54.469Z,19.58
2017-07-26T06:33:22.010Z,20.25
2017-07-26T06:35:49.552Z,21.75
2017-07-26T06:38:17.131Z,21.95
2017-07-26T06:40:44.669Z,21.98
2017-07-26T06:43:12.885Z,22.70
2017-07-26T06:45:40.427Z,22.52
2017-07-26T06:48:07.973Z,23.05
2017-07-26T06:50:35.565Z,23.38
2017-07-26T06:53:03.788Z,22.40
2017-07-26T06:55:32.243Z,21.83
2017-07-26T06:57:59.829Z,21.30
2017-07-26T07:00:27.398Z,21.40
2017-07-26T07:02:55.330Z,21.50
2017-07-26T07:05:22.873Z,21.17
2017-07-26T07:07:50.415Z,21.02
2017-07-26T07:10:17.993Z,20.90
2017-07-26T07:12:45.532Z,20.88
2017-07-26T07:15:13.449Z,21.25
2017-07-26T07:17:41.031Z,19.58
2017-07-26T07:20:09.330Z,18.70
2017-07-26T07:22:37.073Z,19.87
2017-07-26T07:25:05.380Z,18.85
2017-07-26T07:27:32.916Z,17.20
2017-07-26T07:30:00.940Z,17.27
2017-07-26T07:32:28.500Z,15.60
2017-07-26T07:34:56.045Z,16.85
2017-07-26T07:37:24.271Z,14.43
2017-07-26T07:39:51.829Z,15.00
2017-07-26T07:42:20.129Z,12.57
2017-07-26T07:44:47.782Z,12.80
2017-07-26T07:47:15.363Z,11.77
2017-07-26T07:49:42.940Z,11.07
2017-07-26T07:52:10.519Z,11.55
2017-07-26T07:54:38.884Z,13.43
2017-07-26T07:57:06.610Z,15.60
2017-07-26T07:59:34.199Z,17.30
2017-07-26T08:02:01.741Z,22.42
2017-07-26T08:04:29.648Z,22.08
2017-07-26T08:06:57.185Z,22.33
2017-07-26T08:09:24.725Z,23.33
2017-07-26T08:11:57.242Z,23.95
2017-07-26T08:14:25.097Z,25.95
2017-07-26T08:16:52.648Z,26.80
2017-07-26T08:19:20.217Z,26.00
2017-07-26T08:21:47.829Z,27.25
2017-07-26T08:24:15.426Z,25.88
2017-07-26T08:26:43.010Z,25.20
2017-07-26T08:29:10.558Z,24.83
2017-07-26T08:31:38.432Z,25.95
2017-07-26T08:34:05.973Z,26.30
2017-07-26T08:36:33.569Z,24.75
2017-07-26T08:39:01.115Z,25.42
2017-07-26T08:41:29.492Z,26.25
2017-07-26T08:43:57.039Z,26.75
2017-07-26T08:46:24.605Z,23.95
2017-07-26T08:48:52.489Z,24.60
2017-07-26T08:51:20.677Z,24.77
2017-07-26T08:53:48.222Z,24.30
2017-07-26T08:56:15.762Z,24.20
2017-07-26T08:58:43.340Z,21.05
2017-07-26T09:01:10.921Z,21.73
2017-07-26T09:03:38.505Z,21.77
2017-07-26T09:06:06.818Z,21.95
2017-07-26T09:08:34.589Z,21.77
2017-07-26T09:11:02.140Z,22.13
2017-07-26T09:13:32.291Z,21.33
2017-07-26T09:16:00.633Z,22.17
2017-07-26T09:18:28.173Z,21.62
2017-07-26T09:20:55.825Z,20.85
2017-07-26T09:23:24.145Z,19.58
2017-07-26T09:25:55.615Z,21.00
2017-07-26T09:28:23.241Z,19.60
2017-07-26T09:30:50.781Z,21.40
2017-07-26T09:33:19.099Z,20.65
2017-07-26T09:35:46.684Z,21.12
2017-07-26T09:38:15.345Z,22.23
2017-07-26T09:40:43.213Z,21.42
2017-07-26T09:43:10.761Z,20.20
2017-07-26T09:45:42.218Z,20.25
2017-07-26T09:48:09.818Z,20.50
2017-07-26T09:50:37.369Z,20.88
2017-07-26T09:53:05.298Z,20.67
2017-07-26T09:55:33.079Z,20.30
2017-07-26T09:58:00.629Z,18.93
2017-07-26T10:00:28.621Z,18.73
2017-07-26T10:02:56.165Z,18.67
2017-07-26T10:05:23.723Z,17.90
2017-07-26T10:07:51.309Z,17.50
2017-07-26T10:10:19.584Z,16.40
2017-07-26T10:12:47.129Z,15.60
2017-07-26T10:15:14.668Z,15.53
2017-07-26T10:17:42.254Z,15.03
2017-07-26T10:20:09.844Z,16.30
2017-07-26T10:22:37.387Z,14.50
2017-07-26T10:25:05.061Z,13.53
2017-07-26T10:27:32.605Z,12.63
2017-07-26T10:30:00.270Z,12.90
2017-07-26T10:32:27.993Z,13.47
2017-07-26T10:34:55.604Z,12.90
2017-07-26T10:37:23.565Z,13.97
2017-07-26T10:39:51.102Z,12.80
2017-07-26T10:42:18.643Z,12.20
2017-07-26T10:44:46.229Z,11.03
2017-07-26T10:47:13.767Z,10.93
2017-07-26T10:49:41.782Z,10.23
2017-07-26T10:52:09.326Z,10.77
2017-07-26T10:54:36.867Z,11.13
2017-07-26T10:57:04.756Z,10.40
2017-07-26T10:59:32.329Z,9.60
2017-07-26T11:01:59.873Z,9.27
2017-07-26T11:04:27.605Z,7.97
2017-07-26T11:06:55.143Z,7.20
2017-07-26T11:09:22.761Z,8.00
2017-07-26T11:11:50.313Z,7.40
2017-07-26T11:14:21.556Z,6.97
2017-07-26T11:16:49.197Z,6.90
2017-07-26T11:19:20.486Z,6.77
2017-07-26T11:21:48.235Z,6.27
2017-07-26T11:24:15.770Z,6.83
2017-07-26T11:26:43.630Z,6.83
2017-07-26T11:29:11.215Z,5.90
2017-07-26T11:31:39.110Z,6.87
2017-07-26T11:34:06.692Z,6.00
2017-07-26T11:36:34.226Z,5.67
2017-07-26T11:39:01.764Z,6.30
2017-07-26T11:41:29.655Z,5.77
2017-07-26T11:43:57.238Z,5.53
2017-07-26T11:46:24.801Z,5.17
2017-07-26T11:48:52.337Z,5.30
2017-07-26T11:51:19.905Z,4.63
2017-07-26T11:53:47.437Z,4.23
2017-07-26T11:56:16.603Z,3.73
2017-07-26T11:58:44.452Z,4.17
2017-07-26T12:01:11.989Z,3.80
2017-07-26T12:03:39.564Z,4.40
2017-07-26T12:06:07.137Z,4.00
2017-07-26T12:08:35.441Z,4.03
2017-07-26T12:11:03.053Z,3.90
2017-07-26T12:13:30.585Z,4.10
2017-07-26T12:15:58.353Z,4.70
2017-07-26T12:18:26.986Z,4.27
2017-07-26T12:20:55.350Z,4.47
2017-07-26T12:23:22.903Z,4.90
2017-07-26T12:25:51.230Z,5.30
2017-07-26T12:28:18.835Z,5.97
2017-07-26T12:30:46.366Z,6.73
2017-07-26T12:33:14.073Z,6.40
2017-07-26T12:35:41.610Z,6.93
2017-07-26T12:38:09.257Z,7.43
2017-07-26T12:40:36.801Z,6.63
2017-07-26T12:43:08.081Z,7.17
2017-07-26T12:45:35.626Z,7.57
2017-07-26T12:48:03.236Z,7.10
2017-07-26T12:50:34.473Z,7.10
2017-07-26T12:53:02.029Z,7.70
2017-07-26T12:55:29.673Z,6.50
2017-07-26T12:57:57.822Z,7.20
2017-07-26T13:00:25.398Z,7.40
2017-07-26T13:02:52.933Z,6.00
2017-07-26T13:05:21.345Z,6.37
2017-07-26T13:07:48.980Z,6.60
2017-07-26T13:10:16.521Z,7.30
2017-07-26T13:12:44.254Z,7.87
2017-07-26T13:15:11.865Z,7.27
2017-07-26T13:17:39.423Z,7.10
2017-07-26T13:20:07.001Z,6.80
2017-07-26T13:22:34.537Z,7.87
2017-07-26T13:25:02.069Z,8.33
2017-07-26T13:27:35.062Z,7.10
2017-07-26T13:30:03.376Z,6.70
2017-07-26T13:32:30.920Z,6.20
2017-07-26T13:34:58.502Z,6.50
2017-07-26T13:37:26.282Z,5.90
2017-07-26T13:39:53.824Z,6.20
2017-07-26T13:42:21.553Z,6.17
2017-07-26T13:44:49.853Z,6.13
2017-07-26T13:47:17.616Z,6.00
2017-07-26T13:49:45.201Z,5.97
2017-07-26T13:52:13.784Z,6.10
2017-07-26T13:54:41.327Z,5.20
2017-07-26T13:57:08.985Z,5.70
2017-07-26T13:59:36.524Z,5.83
2017-07-26T14:02:05.759Z,5.80
2017-07-26T14:04:33.404Z,5.63
2017-07-26T14:07:00.949Z,5.10
2017-07-26T14:09:28.526Z,6.67
2017-07-26T14:11:57.264Z,5.30
2017-07-26T14:14:24.809Z,5.83
2017-07-26T14:16:52.352Z,5.80
2017-07-26T14:19:20.345Z,5.33
2017-07-26T14:21:47.877Z,6.17
2017-07-26T14:24:15.443Z,6.10
2017-07-26T14:26:43.025Z,5.60
2017-07-26T14:29:10.555Z,5.97
2017-07-26T14:31:38.090Z,6.03
2017-07-26T14:34:05.729Z,5.40
2017-07-26T14:36:33.438Z,5.50
2017-07-26T14:39:01.086Z,5.90
2017-07-26T14:41:28.685Z,6.93
2017-07-26T14:43:56.250Z,6.37
2017-07-26T14:46:23.826Z,6.97
2017-07-26T14:48:51.370Z,6.50
2017-07-26T14:51:19.053Z,6.93
2017-07-26T14:53:47.252Z,6.07
2017-07-26T14:56:14.834Z,6.70
2017-07-26T14:58:45.022Z,8.50
2017-07-26T15:01:12.557Z,7.50
2017-07-26T15:03:40.125Z,8.03
2017-07-26T15:06:07.653Z,7.43
2017-07-26T15:08:35.729Z,8.10
2017-07-26T15:11:03.259Z,8.30
2017-07-26T15:13:30.801Z,9.30
2017-07-26T15:15:59.300Z,8.50
2017-07-26T15:18:26.833Z,9.60
2017-07-26T15:20:55.177Z,10.13
2017-07-26T15:23:22.715Z,10.50
2017-07-26T15:25:50.539Z,9.50
2017-07-26T15:28:18.849Z,9.10
2017-07-26T15:30:46.377Z,9.60
2017-07-26T15:33:14.729Z,10.87
2017-07-26T15:35:42.267Z,10.10
2017-07-26T15:38:09.845Z,10.07
2017-07-26T15:40:37.382Z,10.70
2017-07-26T15:43:06.801Z,11.40
2017-07-26T15:45:34.349Z,10.97
2017-07-26T15:48:01.883Z,9.53
2017-07-26T15:50:29.494Z,10.63
2017-07-26T15:52:57.026Z,9.73
2017-07-26T15:55:26.506Z,9.77
2017-07-26T15:57:54.514Z,9.23
2017-07-26T16:00:22.049Z,9.07
2017-07-26T16:02:49.576Z,8.90
2017-07-26T16:05:19.591Z,8.73
2017-07-26T16:07:47.900Z,9.07
2017-07-26T16:10:15.433Z,8.90
2017-07-26T16:12:43.781Z,8.57
2017-07-26T16:15:11.742Z,8.00
2017-07-26T16:17:39.273Z,8.13
2017-07-26T16:20:06.802Z,7.40
2017-07-26T16:22:35.268Z,6.90
2017-07-26T16:25:02.838Z,6.80
2017-07-26T16:27:31.138Z,7.03
2017-07-26T16:30:00.282Z,6.97
2017-07-26T16:32:27.828Z,7.20
2017-07-26T16:34:55.362Z,6.80
2017-07-26T16:37:23.090Z,7.50
2017-07-26T16:39:51.548Z,7.30
2017-07-26T16:42:19.076Z,6.60
2017-07-26T16:44:46.617Z,7.50
2017-07-26T16:47:14.196Z,6.77
2017-07-26T16:49:41.789Z,6.80
2017-07-26T16:52:09.323Z,6.87
2017-07-26T16:54:36.853Z,7.07
2017-07-26T16:57:04.769Z,7.00
2017-07-26T16:59:32.604Z,6.83
2017-07-26T17:02:00.138Z,7.60
2017-07-26T17:04:28.465Z,6.93
2017-07-26T17:06:56.036Z,7.37
2017-07-26T17:09:23.566Z,7.70
2017-07-26T17:11:51.253Z,7.17
2017-07-26T17:14:18.790Z,7.70
2017-07-26T17:16:47.417Z,7.10
2017-07-26T17:19:15.138Z,7.10
2017-07-26T17:21:47.548Z,7.00
2017-07-26T17:24:15.157Z,7.23
2017-07-26T17:26:42.693Z,6.63
2017-07-26T17:29:10.230Z,6.70
2017-07-26T17:31:37.834Z,7.03
2017-07-26T17:34:05.380Z,7.10
2017-07-26T17:36:33.685Z,6.97
2017-07-26T17:39:01.450Z,6.40
2017-07-26T17:41:28.993Z,6.40
2017-07-26T17:43:56.729Z,6.23
2017-07-26T17:46:24.261Z,6.60
2017-07-26T17:48:51.832Z,6.83
2017-07-26T17:51:19.801Z,6.30
2017-07-26T17:53:47.657Z,7.03
2017-07-26T17:56:15.213Z,6.73
2017-07-26T17:58:42.854Z,7.47
2017-07-26T18:01:10.389Z,7.07
2017-07-26T18:03:38.729Z,6.40
2017-07-26T18:06:06.341Z,6.30
2017-07-26T18:08:33.917Z,6.40
2017-07-26T18:11:01.456Z,7.03
2017-07-26T18:13:29.033Z,7.53
2017-07-26T18:15:56.618Z,7.63
2017-07-26T18:18:24.337Z,7.53
2017-07-26T18:20:51.877Z,8.30
2017-07-26T18:23:19.456Z,7.80
2017-07-26T18:25:46.993Z,7.60
2017-07-26T18:28:14.537Z,7.97
2017-07-26T18:30:42.169Z,8.60
2017-07-26T18:33:09.701Z,8.23
2017-07-26T18:35:37.333Z,8.77
2017-07-26T18:38:04.865Z,9.93
2017-07-26T18:40:32.437Z,11.10
2017-07-26T18:42:59.986Z,9.50
2017-07-26T18:45:27.561Z,9.03
2017-07-26T18:47:55.132Z,8.80
2017-07-26T18:50:22.697Z,8.73
2017-07-26T18:52:50.347Z,9.90
2017-07-26T18:55:18.818Z,9.70
2017-07-26T18:57:46.354Z,9.10
2017-07-26T19:00:13.947Z,9.57
2017-07-26T19:02:41.473Z,8.77
2017-07-26T19:05:09.374Z,9.40
2017-07-26T19:07:36.917Z,9.50
2017-07-26T19:10:04.453Z,9.50
2017-07-26T19:12:32.102Z,9.30
2017-07-26T19:14:59.648Z,10.00
2017-07-26T19:17:27.952Z,9.40
2017-07-26T19:19:55.822Z,9.80
2017-07-26T19:22:23.366Z,9.40
2017-07-26T19:24:50.909Z,10.80
2017-07-26T19:27:24.381Z,10.23
2017-07-26T19:29:51.929Z,9.60
2017-07-26T19:32:20.931Z,9.50
2017-07-26T19:34:48.487Z,9.50
2017-07-26T19:37:16.122Z,10.40
2017-07-26T19:39:43.669Z,10.20
2017-07-26T19:42:13.319Z,10.17
2017-07-26T19:44:40.982Z,10.23
2017-07-26T19:47:08.525Z,11.10
2017-07-26T19:49:36.761Z,11.73
2017-07-26T19:52:05.078Z,10.90
2017-07-26T19:54:33.449Z,10.90
2017-07-26T19:57:05.129Z,10.37
2017-07-26T19:59:32.668Z,10.80
2017-07-26T20:02:00.627Z,10.83
2017-07-26T20:04:28.186Z,11.32
2017-07-26T20:06:55.733Z,11.23
2017-07-26T20:09:23.325Z,10.30
2017-07-26T20:11:51.919Z,12.03
2017-07-26T20:14:21.011Z,11.53
2017-07-26T20:16:48.573Z,11.10
2017-07-26T20:19:16.121Z,10.93
2017-07-26T20:21:43.777Z,11.20
2017-07-26T20:24:11.329Z,11.47
2017-07-26T20:26:38.922Z,11.25
2017-07-26T20:29:06.801Z,11.40
2017-07-26T20:31:34.348Z,11.65
2017-07-26T20:34:01.910Z,12.10
2017-07-26T20:36:29.886Z,12.25
2017-07-26T20:38:57.418Z,11.27
2017-07-26T20:41:24.964Z,11.93
2017-07-26T20:43:53.030Z,11.10
2017-07-26T20:46:20.578Z,12.05
2017-07-26T20:48:48.893Z,11.48
2017-07-26T20:51:16.513Z,11.27
2017-07-26T20:53:44.829Z,11.40
2017-07-26T20:56:12.377Z,11.90
2017-07-26T20:58:40.697Z,11.77
2017-07-26T21:01:08.228Z,10.37
2017-07-26T21:03:35.777Z,11.47
2017-07-26T21:06:03.784Z,10.98
2017-07-26T21:08:31.330Z,11.68
2017-07-26T21:10:58.874Z,10.77
2017-07-26T21:13:26.496Z,11.73
2017-07-26T21:15:54.805Z,10.98
2017-07-26T21:18:22.358Z,10.23
2017-07-26T21:20:50.017Z,10.70
2017-07-26T21:23:17.553Z,9.60
2017-07-26T21:25:45.140Z,11.15
2017-07-26T21:28:12.749Z,10.90
2017-07-26T21:30:40.298Z,10.70
2017-07-26T21:33:07.846Z,9.80
2017-07-26T21:35:35.711Z,9.80
2017-07-26T21:38:03.257Z,10.50
2017-07-26T21:40:30.805Z,10.23
2017-07-26T21:42:58.589Z,11.00
2017-07-26T21:45:26.136Z,9.85
2017-07-26T21:47:54.041Z,10.88
2017-07-26T21:50:21.576Z,10.35
2017-07-26T21:52:49.157Z,10.02
2017-07-26T21:55:16.994Z,9.43
2017-07-26T21:57:44.578Z,9.13
2017-07-26T22:00:17.885Z,9.50
2017-07-26T22:02:45.429Z,10.43
2017-07-26T22:05:12.973Z,10.55
2017-07-26T22:07:40.553Z,10.23
2017-07-26T22:10:08.157Z,9.95
2017-07-26T22:12:36.218Z,10.10
2017-07-26T22:15:03.761Z,10.52
2017-07-26T22:17:31.417Z,10.25
2017-07-26T22:19:59.001Z,11.30
2017-07-26T22:22:26.539Z,10.95
2017-07-26T22:24:56.208Z,10.10
2017-07-26T22:27:23.741Z,8.35
2017-07-26T22:29:51.338Z,8.57
2017-07-26T22:32:18.886Z,8.48
2017-07-26T22:34:46.425Z,9.02
2017-07-26T22:37:14.826Z,9.25
2017-07-26T22:39:42.368Z,9.15
2017-07-26T22:42:10.400Z,9.15
2017-07-26T22:44:37.940Z,9.18
2017-07-26T22:47:05.481Z,8.77
2017-07-26T22:49:33.053Z,8.57
2017-07-26T22:52:00.585Z,9.68
2017-07-26T22:54:29.321Z,9.35
2017-07-26T22:56:56.854Z,8.73
2017-07-26T22:59:24.440Z,9.00
2017-07-26T23:01:52.017Z,8.93
2017-07-26T23:04:19.560Z,9.65
2017-07-26T23:06:47.140Z,9.88
2017-07-26T23:09:14.694Z,9.57
2017-07-26T23:11:42.271Z,9.57
2017-07-26T23:14:09.817Z,10.40
2017-07-26T23:16:37.403Z,10.20
2017-07-26T23:19:04.989Z,10.90
2017-07-26T23:21:32.536Z,10.40
2017-07-26T23:24:00.850Z,11.43
2017-07-26T23:26:28.437Z,11.90
2017-07-26T23:28:55.992Z,11.48
2017-07-26T23:31:23.582Z,12.13
2017-07-26T23:33:51.164Z,12.40
2017-07-26T23:36:19.508Z,12.60
2017-07-26T23:38:47.049Z,12.73
2017-07-26T23:41:15.041Z,12.50
2017-07-26T23:43:42.581Z,12.60
2017-07-26T23:46:10.133Z,12.50
2017-07-26T23:48:37.717Z,12.52
2017-07-26T23:51:05.274Z,12.57
2017-07-26T23:53:33.005Z,13.00
2017-07-26T23:56:05.509Z,13.82
2017-07-26T23:58:33.049Z,12.32
